sensor_id;sensor_type;location;lat;lon;timestamp;temperature;humidity
14020;DHT22;7085;51.428;6.796;2022-07-19T11:40:47;30.80;1.00
14020;DHT22;7085;51.428;6.796;2022-07-19T11:43:14;46.20;1.00
14020;DHT22;7085;51.428;6.796;2022-07-19T11:45:44;45.30;1.00
14020;DHT22;7085;51.428;6.796;2022-07-19T11:48:11;45.40;1.00
14020;DHT22;7085;51.428;6.796;2022-07-19T11:50:38;44.80;1.00
14020;DHT22;7085;51.428;6.796;2022-07-19T11:53:06;44.90;1.00
14020;DHT22;7085;51.428;6.796;2022-07-19T11:55:36;45.50;1.00
14020;DHT22;7085;51.428;6.796;2022-07-19T11:58:06;45.80;1.00
14020;DHT22;7085;51.428;6.796;2022-07-19T12:00:34;46.10;1.00
14020;DHT22;7085;51.428;6.796;2022-07-19T12:03:04;46.20;1.00
14020;DHT22;7085;51.428;6.796;2022-07-19T12:05:33;46.50;1.00
14020;DHT22;7085;51.428;6.796;2022-07-19T12:08:03;45.80;1.00
14020;DHT22;7085;51.428;6.796;2022-07-19T12:10:39;45.90;1.00
14020;DHT22;7085;51.428;6.796;2022-07-19T12:13:08;46.00;1.00
14020;DHT22;7085;51.428;6.796;2022-07-19T12:15:46;46.00;1.00
14020;DHT22;7085;51.428;6.796;2022-07-19T12:18:16;46.40;1.00
14020;DHT22;7085;51.428;6.796;2022-07-19T12:20:44;46.70;1.00
14020;DHT22;7085;51.428;6.796;2022-07-19T12:23:13;47.00;1.00
14020;DHT22;7085;51.428;6.796;2022-07-19T12:25:40;47.00;1.00
14020;DHT22;7085;51.428;6.796;2022-07-19T12:28:07;46.90;1.00
14020;DHT22;7085;51.428;6.796;2022-07-19T12:30:34;46.40;1.00
14020;DHT22;7085;51.428;6.796;2022-07-19T12:33:06;46.40;1.00
14020;DHT22;7085;51.428;6.796;2022-07-19T12:35:43;46.60;1.00
14020;DHT22;7085;51.428;6.796;2022-07-19T12:38:10;46.60;1.00
14020;DHT22;7085;51.428;6.796;2022-07-19T12:40:38;46.30;1.00
14020;DHT22;7085;51.428;6.796;2022-07-19T12:43:05;46.40;1.00
14020;DHT22;7085;51.428;6.796;2022-07-19T12:45:34;46.40;1.00
14020;DHT22;7085;51.428;6.796;2022-07-19T12:48:01;46.30;1.00
14020;DHT22;7085;51.428;6.796;2022-07-19T12:50:30;46.60;1.00
14020;DHT22;7085;51.428;6.796;2022-07-19T12:53:00;46.40;1.00
14020;DHT22;7085;51.428;6.796;2022-07-19T12:55:29;46.40;1.00
14020;DHT22;7085;51.428;6.796;2022-07-19T12:57:57;46.60;1.00
14020;DHT22;7085;51.428;6.796;2022-07-19T13:00:26;46.60;1.00
14020;DHT22;7085;51.428;6.796;2022-07-19T13:02:54;46.20;1.00
14020;DHT22;7085;51.428;6.796;2022-07-19T13:05:21;46.60;1.00
14020;DHT22;7085;51.428;6.796;2022-07-19T13:07:49;46.80;1.00
14020;DHT22;7085;51.428;6.796;2022-07-19T13:10:18;46.90;1.00
14020;DHT22;7085;51.428;6.796;2022-07-19T13:12:45;46.80;1.00
14020;DHT22;7085;51.428;6.796;2022-07-19T13:15:12;46.80;1.00
14020;DHT22;7085;51.428;6.796;2022-07-19T13:17:40;46.80;1.00
14020;DHT22;7085;51.428;6.796;2022-07-19T13:20:08;47.00;1.00
14020;DHT22;7085;51.428;6.796;2022-07-19T13:22:36;46.70;1.00
14020;DHT22;7085;51.428;6.796;2022-07-19T13:25:04;46.80;1.00
14020;DHT22;7085;51.428;6.796;2022-07-19T13:27:33;47.10;1.00
14020;DHT22;7085;51.428;6.796;2022-07-19T13:29:59;47.40;1.00
14020;DHT22;7085;51.428;6.796;2022-07-19T13:32:26;47.70;1.00
14020;DHT22;7085;51.428;6.796;2022-07-19T13:34:56;47.30;1.00
14020;DHT22;7085;51.428;6.796;2022-07-19T13:37:23;46.80;1.00
14020;DHT22;7085;51.428;6.796;2022-07-19T13:39:49;47.00;1.00
14020;DHT22;7085;51.428;6.796;2022-07-19T13:42:16;47.00;1.00
14020;DHT22;7085;51.428;6.796;2022-07-19T13:44:44;47.10;1.00
14020;DHT22;7085;51.428;6.796;2022-07-19T13:47:11;46.50;1.00
14020;DHT22;7085;51.428;6.796;2022-07-19T13:49:37;45.80;1.00
14020;DHT22;7085;51.428;6.796;2022-07-19T13:52:04;45.20;1.00
14020;DHT22;7085;51.428;6.796;2022-07-19T13:54:31;45.80;1.00
14020;DHT22;7085;51.428;6.796;2022-07-19T13:56:58;46.40;1.00
14020;DHT22;7085;51.428;6.796;2022-07-19T13:59:24;46.70;1.00
14020;DHT22;7085;51.428;6.796;2022-07-19T14:01:53;46.80;1.00
14020;DHT22;7085;51.428;6.796;2022-07-19T14:04:20;47.00;1.00
14020;DHT22;7085;51.428;6.796;2022-07-19T14:06:46;47.30;1.00
14020;DHT22;7085;51.428;6.796;2022-07-19T14:09:13;46.80;1.00
14020;DHT22;7085;51.428;6.796;2022-07-19T14:11:40;46.90;1.00
14020;DHT22;7085;51.428;6.796;2022-07-19T14:14:07;47.10;1.00
14020;DHT22;7085;51.428;6.796;2022-07-19T14:16:34;46.90;1.00
14020;DHT22;7085;51.428;6.796;2022-07-19T14:19:02;47.10;1.00
14020;DHT22;7085;51.428;6.796;2022-07-19T14:21:28;47.10;1.00
14020;DHT22;7085;51.428;6.796;2022-07-19T14:23:59;47.40;1.00
14020;DHT22;7085;51.428;6.796;2022-07-19T14:26:26;47.40;1.00
14020;DHT22;7085;51.428;6.796;2022-07-19T14:28:52;47.40;1.00
14020;DHT22;7085;51.428;6.796;2022-07-19T14:31:19;47.10;1.00
14020;DHT22;7085;51.428;6.796;2022-07-19T14:33:46;47.10;1.00
14020;DHT22;7085;51.428;6.796;2022-07-19T14:36:14;46.90;1.00
14020;DHT22;7085;51.428;6.796;2022-07-19T14:38:41;47.20;1.00
14020;DHT22;7085;51.428;6.796;2022-07-19T14:41:08;47.30;1.00
14020;DHT22;7085;51.428;6.796;2022-07-19T14:43:34;47.30;1.00
14020;DHT22;7085;51.428;6.796;2022-07-19T14:46:01;47.00;1.00
14020;DHT22;7085;51.428;6.796;2022-07-19T14:48:28;47.10;1.00
14020;DHT22;7085;51.428;6.796;2022-07-19T14:50:54;47.40;1.00
14020;DHT22;7085;51.428;6.796;2022-07-19T14:53:22;47.40;1.00
14020;DHT22;7085;51.428;6.796;2022-07-19T14:55:49;47.20;1.00
14020;DHT22;7085;51.428;6.796;2022-07-19T14:58:16;47.10;1.00
14020;DHT22;7085;51.428;6.796;2022-07-19T15:00:42;47.00;1.00
14020;DHT22;7085;51.428;6.796;2022-07-19T15:03:09;46.70;1.00
14020;DHT22;7085;51.428;6.796;2022-07-19T15:05:36;46.60;1.00
14020;DHT22;7085;51.428;6.796;2022-07-19T15:08:03;46.40;1.00
14020;DHT22;7085;51.428;6.796;2022-07-19T15:10:31;46.40;1.00
14020;DHT22;7085;51.428;6.796;2022-07-19T15:12:58;46.80;1.00
14020;DHT22;7085;51.428;6.796;2022-07-19T15:15:25;46.70;1.00
14020;DHT22;7085;51.428;6.796;2022-07-19T15:17:52;46.60;1.00
14020;DHT22;7085;51.428;6.796;2022-07-19T15:20:18;46.40;1.00
14020;DHT22;7085;51.428;6.796;2022-07-19T15:22:47;46.20;1.00
14020;DHT22;7085;51.428;6.796;2022-07-19T15:25:14;46.20;1.00
14020;DHT22;7085;51.428;6.796;2022-07-19T15:27:45;46.10;1.00
14020;DHT22;7085;51.428;6.796;2022-07-19T15:30:15;45.90;1.00
14020;DHT22;7085;51.428;6.796;2022-07-19T15:32:42;45.60;1.00
14020;DHT22;7085;51.428;6.796;2022-07-19T15:35:09;45.70;1.00
14020;DHT22;7085;51.428;6.796;2022-07-19T15:37:36;45.80;1.00
14020;DHT22;7085;51.428;6.796;2022-07-19T15:40:04;45.60;1.00
14020;DHT22;7085;51.428;6.796;2022-07-19T15:42:42;45.50;1.00
14020;DHT22;7085;51.428;6.796;2022-07-19T15:45:14;45.20;1.00
14020;DHT22;7085;51.428;6.796;2022-07-19T15:47:43;45.20;1.00
14020;DHT22;7085;51.428;6.796;2022-07-19T15:50:11;45.30;1.00
14020;DHT22;7085;51.428;6.796;2022-07-19T15:52:39;44.90;1.00
14020;DHT22;7085;51.428;6.796;2022-07-19T15:55:07;44.50;1.00
14020;DHT22;7085;51.428;6.796;2022-07-19T15:57:34;44.50;1.00
14020;DHT22;7085;51.428;6.796;2022-07-19T16:00:03;44.30;1.00
14020;DHT22;7085;51.428;6.796;2022-07-19T16:02:31;43.40;1.00
14020;DHT22;7085;51.428;6.796;2022-07-19T16:04:58;42.50;1.00
14020;DHT22;7085;51.428;6.796;2022-07-19T16:07:25;41.80;1.00
14020;DHT22;7085;51.428;6.796;2022-07-19T16:09:51;41.30;1.00
14020;DHT22;7085;51.428;6.796;2022-07-19T16:12:18;40.80;1.00
14020;DHT22;7085;51.428;6.796;2022-07-19T16:14:45;40.60;1.00
14020;DHT22;7085;51.428;6.796;2022-07-19T16:17:14;40.40;1.00
14020;DHT22;7085;51.428;6.796;2022-07-19T16:19:42;40.30;1.00
14020;DHT22;7085;51.428;6.796;2022-07-19T16:22:09;40.10;1.00
14020;DHT22;7085;51.428;6.796;2022-07-19T16:24:36;40.00;1.00
14020;DHT22;7085;51.428;6.796;2022-07-19T16:27:02;39.90;1.00
14020;DHT22;7085;51.428;6.796;2022-07-19T16:29:29;39.80;1.00
14020;DHT22;7085;51.428;6.796;2022-07-19T16:31:57;39.60;1.00
14020;DHT22;7085;51.428;6.796;2022-07-19T16:34:25;39.50;1.00
14020;DHT22;7085;51.428;6.796;2022-07-19T16:36:53;39.50;1.00
14020;DHT22;7085;51.428;6.796;2022-07-19T16:39:20;39.50;1.00
14020;DHT22;7085;51.428;6.796;2022-07-19T16:41:46;39.40;1.00
14020;DHT22;7085;51.428;6.796;2022-07-19T16:44:13;39.40;1.00
14020;DHT22;7085;51.428;6.796;2022-07-19T16:46:40;39.40;1.00
14020;DHT22;7085;51.428;6.796;2022-07-19T16:49:08;39.40;1.00
14020;DHT22;7085;51.428;6.796;2022-07-19T16:51:34;38.90;1.00
14020;DHT22;7085;51.428;6.796;2022-07-19T16:54:02;38.90;1.00
14020;DHT22;7085;51.428;6.796;2022-07-19T16:56:29;38.90;1.00
14020;DHT22;7085;51.428;6.796;2022-07-19T16:58:56;38.80;1.00
14020;DHT22;7085;51.428;6.796;2022-07-19T17:01:23;38.80;1.00
14020;DHT22;7085;51.428;6.796;2022-07-19T17:03:50;38.70;1.00
14020;DHT22;7085;51.428;6.796;2022-07-19T17:06:17;38.70;1.00
14020;DHT22;7085;51.428;6.796;2022-07-19T17:08:44;38.70;1.00
14020;DHT22;7085;51.428;6.796;2022-07-19T17:11:12;38.40;1.00
14020;DHT22;7085;51.428;6.796;2022-07-19T17:13:39;38.30;1.00
14020;DHT22;7085;51.428;6.796;2022-07-19T17:16:06;38.20;1.00
14020;DHT22;7085;51.428;6.796;2022-07-19T17:18:33;38.20;1.00
14020;DHT22;7085;51.428;6.796;2022-07-19T17:20:59;38.20;1.00
14020;DHT22;7085;51.428;6.796;2022-07-19T17:23:26;38.10;1.00
14020;DHT22;7085;51.428;6.796;2022-07-19T17:25:53;38.10;1.00
14020;DHT22;7085;51.428;6.796;2022-07-19T17:28:21;38.00;1.00
14020;DHT22;7085;51.428;6.796;2022-07-19T17:30:48;37.90;1.00
14020;DHT22;7085;51.428;6.796;2022-07-19T17:33:15;37.90;1.00
14020;DHT22;7085;51.428;6.796;2022-07-19T17:35:42;37.80;1.00
14020;DHT22;7085;51.428;6.796;2022-07-19T17:38:08;37.70;1.00
14020;DHT22;7085;51.428;6.796;2022-07-19T17:40:35;37.70;1.00
14020;DHT22;7085;51.428;6.796;2022-07-19T17:43:02;37.60;1.00
14020;DHT22;7085;51.428;6.796;2022-07-19T17:45:30;37.50;1.00
14020;DHT22;7085;51.428;6.796;2022-07-19T17:47:57;37.30;1.00
14020;DHT22;7085;51.428;6.796;2022-07-19T17:50:24;37.30;1.00
14020;DHT22;7085;51.428;6.796;2022-07-19T17:52:51;37.10;1.00
14020;DHT22;7085;51.428;6.796;2022-07-19T17:55:18;37.10;1.00
14020;DHT22;7085;51.428;6.796;2022-07-19T17:57:45;36.80;1.00
14020;DHT22;7085;51.428;6.796;2022-07-19T18:00:12;36.80;1.00
14020;DHT22;7085;51.428;6.796;2022-07-19T18:02:40;36.70;1.00
14020;DHT22;7085;51.428;6.796;2022-07-19T18:05:08;36.70;1.00
14020;DHT22;7085;51.428;6.796;2022-07-19T18:07:35;36.50;1.00
14020;DHT22;7085;51.428;6.796;2022-07-19T18:10:04;36.50;1.00
14020;DHT22;7085;51.428;6.796;2022-07-19T18:12:31;36.30;1.00
14020;DHT22;7085;51.428;6.796;2022-07-19T18:14:58;36.20;1.00
14020;DHT22;7085;51.428;6.796;2022-07-19T18:17:25;35.90;1.00
14020;DHT22;7085;51.428;6.796;2022-07-19T18:19:53;35.80;1.00
14020;DHT22;7085;51.428;6.796;2022-07-19T18:22:20;35.80;1.00
14020;DHT22;7085;51.428;6.796;2022-07-19T18:24:47;35.80;1.00
14020;DHT22;7085;51.428;6.796;2022-07-19T18:27:17;35.60;1.00
14020;DHT22;7085;51.428;6.796;2022-07-19T18:29:45;35.50;1.00
14020;DHT22;7085;51.428;6.796;2022-07-19T18:32:12;35.50;1.00
14020;DHT22;7085;51.428;6.796;2022-07-19T18:34:38;37.00;1.00
14020;DHT22;7085;51.428;6.796;2022-07-19T18:37:08;35.10;1.00
14020;DHT22;7085;51.428;6.796;2022-07-19T18:39:34;35.00;1.00
14020;DHT22;7085;51.428;6.796;2022-07-19T18:44:32;34.90;1.00
14020;DHT22;7085;51.428;6.796;2022-07-19T18:47:00;34.80;1.00
14020;DHT22;7085;51.428;6.796;2022-07-19T18:49:27;34.60;1.00
14020;DHT22;7085;51.428;6.796;2022-07-19T18:51:54;34.60;1.00
14020;DHT22;7085;51.428;6.796;2022-07-19T18:54:22;34.40;1.00
14020;DHT22;7085;51.428;6.796;2022-07-19T18:56:49;34.30;1.00
14020;DHT22;7085;51.428;6.796;2022-07-19T18:59:16;34.10;1.00
14020;DHT22;7085;51.428;6.796;2022-07-19T19:01:43;33.90;1.00
14020;DHT22;7085;51.428;6.796;2022-07-19T19:04:10;33.80;1.00
14020;DHT22;7085;51.428;6.796;2022-07-19T19:06:36;33.70;1.00
14020;DHT22;7085;51.428;6.796;2022-07-19T19:09:03;33.60;1.00
14020;DHT22;7085;51.428;6.796;2022-07-19T19:11:32;33.40;1.00
14020;DHT22;7085;51.428;6.796;2022-07-19T19:13:59;32.40;1.00
14020;DHT22;7085;51.428;6.796;2022-07-19T19:16:25;33.20;1.00
14020;DHT22;7085;51.428;6.796;2022-07-19T19:18:52;33.00;1.00
14020;DHT22;7085;51.428;6.796;2022-07-19T19:21:19;32.90;1.00
14020;DHT22;7085;51.428;6.796;2022-07-19T19:23:46;32.60;1.00
14020;DHT22;7085;51.428;6.796;2022-07-19T19:26:12;32.50;1.00
14020;DHT22;7085;51.428;6.796;2022-07-19T19:28:41;32.50;1.00
14020;DHT22;7085;51.428;6.796;2022-07-19T19:31:08;32.40;1.00
14020;DHT22;7085;51.428;6.796;2022-07-19T19:33:34;32.50;1.00
14020;DHT22;7085;51.428;6.796;2022-07-19T19:36:02;32.30;1.00
14020;DHT22;7085;51.428;6.796;2022-07-19T19:38:29;32.00;1.00
14020;DHT22;7085;51.428;6.796;2022-07-19T19:40:56;31.80;1.00
14020;DHT22;7085;51.428;6.796;2022-07-19T19:43:23;31.70;1.00
14020;DHT22;7085;51.428;6.796;2022-07-19T19:45:51;31.70;1.00
14020;DHT22;7085;51.428;6.796;2022-07-19T19:48:18;31.60;1.00
14020;DHT22;7085;51.428;6.796;2022-07-19T19:50:44;31.40;1.00
14020;DHT22;7085;51.428;6.796;2022-07-19T19:53:12;31.30;1.00
14020;DHT22;7085;51.428;6.796;2022-07-19T19:55:39;31.20;1.00
14020;DHT22;7085;51.428;6.796;2022-07-19T19:58:07;31.10;1.00
14020;DHT22;7085;51.428;6.796;2022-07-19T20:00:34;31.00;1.00
14020;DHT22;7085;51.428;6.796;2022-07-19T20:03:04;30.90;1.00
14020;DHT22;7085;51.428;6.796;2022-07-19T20:05:31;30.80;1.00
14020;DHT22;7085;51.428;6.796;2022-07-19T20:07:58;30.70;1.00
14020;DHT22;7085;51.428;6.796;2022-07-19T20:10:24;30.60;1.00
14020;DHT22;7085;51.428;6.796;2022-07-19T20:12:51;30.60;1.00
14020;DHT22;7085;51.428;6.796;2022-07-19T20:15:18;30.60;1.00
14020;DHT22;7085;51.428;6.796;2022-07-19T20:17:45;30.40;1.00
14020;DHT22;7085;51.428;6.796;2022-07-19T20:20:13;30.30;1.00
14020;DHT22;7085;51.428;6.796;2022-07-19T20:22:40;30.40;1.00
14020;DHT22;7085;51.428;6.796;2022-07-19T20:25:08;32.40;1.00
14020;DHT22;7085;51.428;6.796;2022-07-19T20:27:35;30.00;1.00
14020;DHT22;7085;51.428;6.796;2022-07-19T20:30:03;29.90;1.00
14020;DHT22;7085;51.428;6.796;2022-07-19T20:32:30;29.90;1.00
14020;DHT22;7085;51.428;6.796;2022-07-19T20:34:57;29.80;1.00
14020;DHT22;7085;51.428;6.796;2022-07-19T20:37:28;29.80;1.00
14020;DHT22;7085;51.428;6.796;2022-07-19T20:39:55;29.70;1.00
14020;DHT22;7085;51.428;6.796;2022-07-19T20:42:22;29.70;1.00
14020;DHT22;7085;51.428;6.796;2022-07-19T20:44:49;29.70;1.00
14020;DHT22;7085;51.428;6.796;2022-07-19T20:47:16;29.80;1.00
14020;DHT22;7085;51.428;6.796;2022-07-19T20:49:42;29.70;1.00
14020;DHT22;7085;51.428;6.796;2022-07-19T20:52:09;29.70;1.00
14020;DHT22;7085;51.428;6.796;2022-07-19T20:54:37;29.70;1.00
14020;DHT22;7085;51.428;6.796;2022-07-19T20:57:04;29.80;1.00
14020;DHT22;7085;51.428;6.796;2022-07-19T20:59:31;29.70;1.00
14020;DHT22;7085;51.428;6.796;2022-07-19T21:01:58;29.70;1.00
14020;DHT22;7085;51.428;6.796;2022-07-19T21:04:25;29.80;1.00
14020;DHT22;7085;51.428;6.796;2022-07-19T21:06:53;29.70;1.00
14020;DHT22;7085;51.428;6.796;2022-07-19T21:09:19;29.70;1.00
14020;DHT22;7085;51.428;6.796;2022-07-19T21:11:47;29.70;1.00
14020;DHT22;7085;51.428;6.796;2022-07-19T21:14:14;29.70;1.00
14020;DHT22;7085;51.428;6.796;2022-07-19T21:16:41;29.70;1.00
14020;DHT22;7085;51.428;6.796;2022-07-19T21:19:08;29.70;1.00
14020;DHT22;7085;51.428;6.796;2022-07-19T21:21:34;29.80;1.00
14020;DHT22;7085;51.428;6.796;2022-07-19T21:24:02;29.80;1.00
14020;DHT22;7085;51.428;6.796;2022-07-19T21:26:29;29.80;1.00
14020;DHT22;7085;51.428;6.796;2022-07-19T21:28:58;29.80;1.00
14020;DHT22;7085;51.428;6.796;2022-07-19T21:31:25;29.90;1.00
14020;DHT22;7085;51.428;6.796;2022-07-19T21:33:52;29.80;1.00
14020;DHT22;7085;51.428;6.796;2022-07-19T21:36:30;29.80;1.00
14020;DHT22;7085;51.428;6.796;2022-07-19T21:38:59;29.70;1.00
14020;DHT22;7085;51.428;6.796;2022-07-19T21:41:26;29.80;1.00
14020;DHT22;7085;51.428;6.796;2022-07-19T21:43:53;29.80;1.00
14020;DHT22;7085;51.428;6.796;2022-07-19T21:46:23;29.80;1.00
14020;DHT22;7085;51.428;6.796;2022-07-19T21:48:50;29.70;1.00
14020;DHT22;7085;51.428;6.796;2022-07-19T21:51:16;29.70;1.00
14020;DHT22;7085;51.428;6.796;2022-07-19T21:53:43;29.80;1.00
14020;DHT22;7085;51.428;6.796;2022-07-19T21:56:10;29.80;1.00
14020;DHT22;7085;51.428;6.796;2022-07-19T21:58:37;29.80;1.00
14020;DHT22;7085;51.428;6.796;2022-07-19T22:01:04;29.70;1.00
14020;DHT22;7085;51.428;6.796;2022-07-19T22:03:32;29.80;1.00
14020;DHT22;7085;51.428;6.796;2022-07-19T22:06:00;29.70;1.00
14020;DHT22;7085;51.428;6.796;2022-07-19T22:08:28;29.60;1.00
14020;DHT22;7085;51.428;6.796;2022-07-19T22:10:56;29.60;1.00
14020;DHT22;7085;51.428;6.796;2022-07-19T22:13:23;29.60;1.00
14020;DHT22;7085;51.428;6.796;2022-07-19T22:15:51;29.60;1.00
14020;DHT22;7085;51.428;6.796;2022-07-19T22:18:18;29.50;1.00
14020;DHT22;7085;51.428;6.796;2022-07-19T22:20:49;29.70;1.00
14020;DHT22;7085;51.428;6.796;2022-07-19T22:23:16;29.60;1.00
14020;DHT22;7085;51.428;6.796;2022-07-19T22:25:44;29.60;1.00
14020;DHT22;7085;51.428;6.796;2022-07-19T22:28:11;29.60;1.00
14020;DHT22;7085;51.428;6.796;2022-07-19T22:30:38;29.50;1.00
14020;DHT22;7085;51.428;6.796;2022-07-19T22:33:05;29.50;1.00
14020;DHT22;7085;51.428;6.796;2022-07-19T22:35:32;29.50;1.00
14020;DHT22;7085;51.428;6.796;2022-07-19T22:38:01;29.40;1.00
14020;DHT22;7085;51.428;6.796;2022-07-19T22:40:31;29.40;1.00
14020;DHT22;7085;51.428;6.796;2022-07-19T22:42:58;29.40;1.00
14020;DHT22;7085;51.428;6.796;2022-07-19T22:48:03;29.50;1.00
14020;DHT22;7085;51.428;6.796;2022-07-19T22:50:30;29.40;1.00
14020;DHT22;7085;51.428;6.796;2022-07-19T22:52:57;29.40;1.00
14020;DHT22;7085;51.428;6.796;2022-07-19T22:55:25;29.40;1.00
14020;DHT22;7085;51.428;6.796;2022-07-19T22:57:52;29.30;1.00
14020;DHT22;7085;51.428;6.796;2022-07-19T23:00:18;29.30;1.00
14020;DHT22;7085;51.428;6.796;2022-07-19T23:02:45;29.30;1.00
14020;DHT22;7085;51.428;6.796;2022-07-19T23:05:15;29.20;1.00
14020;DHT22;7085;51.428;6.796;2022-07-19T23:07:41;29.10;1.00
14020;DHT22;7085;51.428;6.796;2022-07-19T23:10:10;29.10;1.00
14020;DHT22;7085;51.428;6.796;2022-07-19T23:12:38;29.00;1.00
14020;DHT22;7085;51.428;6.796;2022-07-19T23:15:07;29.00;1.00
14020;DHT22;7085;51.428;6.796;2022-07-19T23:17:34;29.10;1.00
14020;DHT22;7085;51.428;6.796;2022-07-19T23:20:03;29.00;1.00
14020;DHT22;7085;51.428;6.796;2022-07-19T23:22:30;28.90;1.00
14020;DHT22;7085;51.428;6.796;2022-07-19T23:24:57;29.00;1.00
14020;DHT22;7085;51.428;6.796;2022-07-19T23:27:24;28.90;1.00
14020;DHT22;7085;51.428;6.796;2022-07-19T23:29:52;28.90;1.00
14020;DHT22;7085;51.428;6.796;2022-07-19T23:32:19;28.80;1.00
14020;DHT22;7085;51.428;6.796;2022-07-19T23:34:46;28.90;1.00
14020;DHT22;7085;51.428;6.796;2022-07-19T23:37:13;28.90;1.00
14020;DHT22;7085;51.428;6.796;2022-07-19T23:39:40;28.80;1.00
14020;DHT22;7085;51.428;6.796;2022-07-19T23:42:06;28.80;1.00
14020;DHT22;7085;51.428;6.796;2022-07-19T23:44:33;28.80;1.00
14020;DHT22;7085;51.428;6.796;2022-07-19T23:47:01;28.70;1.00
14020;DHT22;7085;51.428;6.796;2022-07-19T23:49:28;28.60;1.00
14020;DHT22;7085;51.428;6.796;2022-07-19T23:51:55;28.50;1.00
14020;DHT22;7085;51.428;6.796;2022-07-19T23:54:21;28.50;1.00
14020;DHT22;7085;51.428;6.796;2022-07-19T23:56:48;28.40;1.00
14020;DHT22;7085;51.428;6.796;2022-07-19T23:59:15;28.40;1.00
